sensor_id;sensor_type;location;lat;lon;timestamp;pressure;altitude;pressure_sealevel;temperature;humidity
47154;BME280;32907;41.412;2.164;2023-04-23T00:00:56;100251.09;;;21.85;51.33
47154;BME280;32907;41.412;2.164;2023-04-23T00:03:32;99988.09;;;20.37;51.21
47154;BME280;32907;41.412;2.164;2023-04-23T00:06:04;100024.69;;;20.45;51.26
47154;BME280;32907;41.412;2.164;2023-04-23T00:08:34;100222.69;;;21.86;51.40
47154;BME280;32907;41.412;2.164;2023-04-23T00:11:03;100140.94;;;21.36;51.30
47154;BME280;32907;41.412;2.164;2023-04-23T00:13:32;100235.53;;;21.85;51.79
47154;BME280;32907;41.412;2.164;2023-04-23T00:16:00;100042.59;;;20.74;51.79
47154;BME280;32907;41.412;2.164;2023-04-23T00:18:29;100229.44;;;21.88;51.53
47154;BME280;32907;41.412;2.164;2023-04-23T00:20:58;100137.91;;;21.23;52.14
47154;BME280;32907;41.412;2.164;2023-04-23T00:23:27;100067.66;;;20.62;52.34
47154;BME280;32907;41.412;2.164;2023-04-23T00:25:55;100160.53;;;21.38;52.41
47154;BME280;32907;41.412;2.164;2023-04-23T00:28:23;100168.16;;;21.49;52.40
47154;BME280;32907;41.412;2.164;2023-04-23T00:30:53;100230.75;;;21.91;52.69
47154;BME280;32907;41.412;2.164;2023-04-23T00:33:21;100195.59;;;21.67;53.08
47154;BME280;32907;41.412;2.164;2023-04-23T00:35:49;100161.28;;;21.52;53.09
47154;BME280;32907;41.412;2.164;2023-04-23T00:38:17;100192.06;;;21.66;52.88
47154;BME280;32907;41.412;2.164;2023-04-23T00:40:47;100192.59;;;21.77;53.23
47154;BME280;32907;41.412;2.164;2023-04-23T00:43:15;100217.91;;;21.91;53.29
47154;BME280;32907;41.412;2.164;2023-04-23T00:45:44;100201.91;;;21.76;53.35
47154;BME280;32907;41.412;2.164;2023-04-23T00:48:18;100073.03;;;20.89;53.58
47154;BME280;32907;41.412;2.164;2023-04-23T00:50:46;100133.00;;;21.26;53.13
47154;BME280;32907;41.412;2.164;2023-04-23T00:53:14;100041.34;;;20.44;53.44
47154;BME280;32907;41.412;2.164;2023-04-23T00:55:43;99997.88;;;20.38;53.13
47154;BME280;32907;41.412;2.164;2023-04-23T00:58:14;99948.44;;;19.95;53.07
47154;BME280;32907;41.412;2.164;2023-04-23T01:00:45;100143.78;;;21.17;53.14
47154;BME280;32907;41.412;2.164;2023-04-23T01:03:15;100205.19;;;21.42;52.70
47154;BME280;32907;41.412;2.164;2023-04-23T01:05:45;100056.38;;;20.55;52.93
47154;BME280;32907;41.412;2.164;2023-04-23T01:08:15;100096.28;;;20.73;52.91
47154;BME280;32907;41.412;2.164;2023-04-23T01:10:47;100180.13;;;21.40;52.65
47154;BME280;32907;41.412;2.164;2023-04-23T01:13:15;99949.66;;;19.89;52.97
47154;BME280;32907;41.412;2.164;2023-04-23T01:15:44;100122.97;;;20.85;52.98
47154;BME280;32907;41.412;2.164;2023-04-23T01:18:13;100098.59;;;20.80;52.74
47154;BME280;32907;41.412;2.164;2023-04-23T01:20:42;100063.94;;;20.44;52.69
47154;BME280;32907;41.412;2.164;2023-04-23T01:23:10;100016.63;;;20.26;52.97
47154;BME280;32907;41.412;2.164;2023-04-23T01:25:38;100002.03;;;20.22;52.69
47154;BME280;32907;41.412;2.164;2023-04-23T01:28:07;100043.16;;;20.34;53.02
47154;BME280;32907;41.412;2.164;2023-04-23T01:30:35;100012.81;;;20.27;52.82
47154;BME280;32907;41.412;2.164;2023-04-23T01:33:04;100172.50;;;21.28;52.86
47154;BME280;32907;41.412;2.164;2023-04-23T01:35:34;100183.78;;;21.35;52.72
47154;BME280;32907;41.412;2.164;2023-04-23T01:38:05;100223.78;;;21.62;52.70
47154;BME280;32907;41.412;2.164;2023-04-23T01:40:34;100220.25;;;21.62;52.84
47154;BME280;32907;41.412;2.164;2023-04-23T01:43:03;100182.34;;;21.38;52.84
47154;BME280;32907;41.412;2.164;2023-04-23T01:45:31;100134.16;;;21.11;53.00
47154;BME280;32907;41.412;2.164;2023-04-23T01:47:59;100021.06;;;20.36;53.05
47154;BME280;32907;41.412;2.164;2023-04-23T01:50:27;100216.09;;;21.64;52.97
47154;BME280;32907;41.412;2.164;2023-04-23T01:52:56;100117.13;;;20.91;52.85
47154;BME280;32907;41.412;2.164;2023-04-23T01:55:24;99981.78;;;20.15;52.80
47154;BME280;32907;41.412;2.164;2023-04-23T01:57:52;100224.47;;;21.68;52.57
47154;BME280;32907;41.412;2.164;2023-04-23T02:00:20;100056.25;;;20.60;52.71
47154;BME280;32907;41.412;2.164;2023-04-23T02:02:48;100244.19;;;21.65;52.50
47154;BME280;32907;41.412;2.164;2023-04-23T02:05:20;100224.09;;;21.61;52.21
47154;BME280;32907;41.412;2.164;2023-04-23T02:07:49;100197.59;;;21.39;52.50
47154;BME280;32907;41.412;2.164;2023-04-23T02:10:17;100234.38;;;21.64;52.43
47154;BME280;32907;41.412;2.164;2023-04-23T02:12:45;100182.19;;;21.34;52.30
47154;BME280;32907;41.412;2.164;2023-04-23T02:15:14;100193.81;;;21.48;51.90
47154;BME280;32907;41.412;2.164;2023-04-23T02:17:43;100191.09;;;21.48;52.10
47154;BME280;32907;41.412;2.164;2023-04-23T02:20:11;100168.81;;;21.33;51.92
47154;BME280;32907;41.412;2.164;2023-04-23T02:22:41;100197.56;;;21.53;52.10
47154;BME280;32907;41.412;2.164;2023-04-23T02:25:09;100167.09;;;21.23;51.82
47154;BME280;32907;41.412;2.164;2023-04-23T02:27:37;100236.63;;;21.62;51.49
47154;BME280;32907;41.412;2.164;2023-04-23T02:30:05;100152.34;;;21.02;51.96
47154;BME280;32907;41.412;2.164;2023-04-23T02:32:35;100151.41;;;21.06;51.90
47154;BME280;32907;41.412;2.164;2023-04-23T02:35:05;100203.84;;;21.39;51.81
47154;BME280;32907;41.412;2.164;2023-04-23T02:37:34;100202.75;;;21.40;51.70
47154;BME280;32907;41.412;2.164;2023-04-23T02:40:03;100207.38;;;21.40;51.62
47154;BME280;32907;41.412;2.164;2023-04-23T02:42:34;100228.38;;;21.53;51.47
47154;BME280;32907;41.412;2.164;2023-04-23T02:45:02;100235.03;;;21.61;51.92
47154;BME280;32907;41.412;2.164;2023-04-23T02:47:31;100185.81;;;21.30;51.38
47154;BME280;32907;41.412;2.164;2023-04-23T02:49:58;100199.63;;;21.33;51.57
47154;BME280;32907;41.412;2.164;2023-04-23T02:52:31;100225.16;;;21.51;51.54
47154;BME280;32907;41.412;2.164;2023-04-23T02:55:00;100204.00;;;21.34;51.78
47154;BME280;32907;41.412;2.164;2023-04-23T02:57:28;100209.81;;;21.41;51.64
47154;BME280;32907;41.412;2.164;2023-04-23T02:59:56;100218.69;;;21.47;51.37
47154;BME280;32907;41.412;2.164;2023-04-23T03:02:31;100235.03;;;21.61;51.47
47154;BME280;32907;41.412;2.164;2023-04-23T03:04:59;100187.75;;;21.29;51.43
47154;BME280;32907;41.412;2.164;2023-04-23T03:07:30;100205.78;;;21.39;51.21
47154;BME280;32907;41.412;2.164;2023-04-23T03:09:58;100224.94;;;21.47;51.45
47154;BME280;32907;41.412;2.164;2023-04-23T03:12:25;100222.22;;;21.47;51.36
47154;BME280;32907;41.412;2.164;2023-04-23T03:14:54;100239.47;;;21.57;51.69
47154;BME280;32907;41.412;2.164;2023-04-23T03:17:24;100210.03;;;21.31;51.22
47154;BME280;32907;41.412;2.164;2023-04-23T03:19:52;100234.63;;;21.54;51.63
47154;BME280;32907;41.412;2.164;2023-04-23T03:22:21;100218.00;;;21.41;51.26
47154;BME280;32907;41.412;2.164;2023-04-23T03:24:49;100198.16;;;21.27;51.24
47154;BME280;32907;41.412;2.164;2023-04-23T03:27:17;100237.84;;;21.56;51.06
47154;BME280;32907;41.412;2.164;2023-04-23T03:29:45;100211.25;;;21.39;51.42
47154;BME280;32907;41.412;2.164;2023-04-23T03:32:13;100202.97;;;21.30;51.27
47154;BME280;32907;41.412;2.164;2023-04-23T03:34:41;100239.38;;;21.48;51.05
47154;BME280;32907;41.412;2.164;2023-04-23T03:37:10;100213.09;;;21.30;51.26
47154;BME280;32907;41.412;2.164;2023-04-23T03:39:38;100189.06;;;21.18;51.28
47154;BME280;32907;41.412;2.164;2023-04-23T03:42:08;100253.09;;;21.57;51.14
47154;BME280;32907;41.412;2.164;2023-04-23T03:44:37;100204.59;;;21.31;51.24
47154;BME280;32907;41.412;2.164;2023-04-23T03:47:05;100178.75;;;21.15;51.08
47154;BME280;32907;41.412;2.164;2023-04-23T03:49:34;100240.78;;;21.59;51.28
47154;BME280;32907;41.412;2.164;2023-04-23T03:52:03;100249.78;;;21.60;51.12
47154;BME280;32907;41.412;2.164;2023-04-23T03:54:33;100209.81;;;21.41;51.32
47154;BME280;32907;41.412;2.164;2023-04-23T03:57:08;100238.88;;;21.60;51.21
47154;BME280;32907;41.412;2.164;2023-04-23T03:59:56;100242.19;;;21.57;50.76
47154;BME280;32907;41.412;2.164;2023-04-23T04:02:24;100243.84;;;21.58;50.91
47154;BME280;32907;41.412;2.164;2023-04-23T04:04:53;100246.56;;;21.58;51.01
47154;BME280;32907;41.412;2.164;2023-04-23T04:07:23;100206.41;;;21.36;51.24
47154;BME280;32907;41.412;2.164;2023-04-23T04:09:54;100228.00;;;21.46;51.33
47154;BME280;32907;41.412;2.164;2023-04-23T04:12:25;100246.56;;;21.58;51.15
47154;BME280;32907;41.412;2.164;2023-04-23T04:14:52;100244.13;;;21.56;50.98
47154;BME280;32907;41.412;2.164;2023-04-23T04:17:20;100250.00;;;21.49;51.08
47154;BME280;32907;41.412;2.164;2023-04-23T04:19:48;100237.91;;;21.42;50.97
47154;BME280;32907;41.412;2.164;2023-04-23T04:22:16;100255.84;;;21.57;51.21
47154;BME280;32907;41.412;2.164;2023-04-23T04:24:43;100221.97;;;21.35;51.10
47154;BME280;32907;41.412;2.164;2023-04-23T04:27:14;100254.53;;;21.54;51.02
47154;BME280;32907;41.412;2.164;2023-04-23T04:29:42;100226.50;;;21.26;51.12
47154;BME280;32907;41.412;2.164;2023-04-23T04:32:11;100255.66;;;21.53;50.87
47154;BME280;32907;41.412;2.164;2023-04-23T04:34:40;100239.94;;;21.36;51.02
47154;BME280;32907;41.412;2.164;2023-04-23T04:37:08;100237.72;;;21.38;51.28
47154;BME280;32907;41.412;2.164;2023-04-23T04:39:38;100240.25;;;21.35;50.86
47154;BME280;32907;41.412;2.164;2023-04-23T04:42:07;100249.50;;;21.47;50.89
47154;BME280;32907;41.412;2.164;2023-04-23T04:44:35;100199.13;;;21.17;50.99
47154;BME280;32907;41.412;2.164;2023-04-23T04:47:05;100240.72;;;21.50;50.95
47154;BME280;32907;41.412;2.164;2023-04-23T04:49:35;100197.72;;;21.20;50.95
47154;BME280;32907;41.412;2.164;2023-04-23T04:52:06;100250.69;;;21.55;50.86
47154;BME280;32907;41.412;2.164;2023-04-23T04:54:34;100250.38;;;21.57;50.56
47154;BME280;32907;41.412;2.164;2023-04-23T04:57:02;100222.03;;;21.44;50.89
47154;BME280;32907;41.412;2.164;2023-04-23T04:59:30;100252.00;;;21.58;50.67
47154;BME280;32907;41.412;2.164;2023-04-23T05:01:59;100212.59;;;21.28;50.54
47154;BME280;32907;41.412;2.164;2023-04-23T05:04:26;100195.31;;;21.18;50.51
47154;BME280;32907;41.412;2.164;2023-04-23T05:06:56;100194.38;;;21.23;50.77
47154;BME280;32907;41.412;2.164;2023-04-23T05:09:24;100217.53;;;21.26;50.79
47154;BME280;32907;41.412;2.164;2023-04-23T05:11:54;100237.09;;;21.41;50.74
47154;BME280;32907;41.412;2.164;2023-04-23T05:14:22;100262.72;;;21.54;50.76
47154;BME280;32907;41.412;2.164;2023-04-23T05:16:52;100251.63;;;21.50;50.90
47154;BME280;32907;41.412;2.164;2023-04-23T05:19:20;100209.63;;;21.24;50.74
47154;BME280;32907;41.412;2.164;2023-04-23T05:21:48;100236.28;;;21.41;50.61
47154;BME280;32907;41.412;2.164;2023-04-23T05:24:16;100240.72;;;21.50;50.72
47154;BME280;32907;41.412;2.164;2023-04-23T05:26:44;100199.53;;;21.24;51.31
47154;BME280;32907;41.412;2.164;2023-04-23T05:29:11;100253.81;;;21.62;51.21
47154;BME280;32907;41.412;2.164;2023-04-23T05:31:44;100235.25;;;21.50;50.90
47154;BME280;32907;41.412;2.164;2023-04-23T05:34:12;100232.31;;;21.47;50.49
47154;BME280;32907;41.412;2.164;2023-04-23T05:36:39;100191.56;;;21.14;50.70
47154;BME280;32907;41.412;2.164;2023-04-23T05:39:07;100201.19;;;21.12;50.74
47154;BME280;32907;41.412;2.164;2023-04-23T05:41:35;100211.06;;;21.21;50.68
47154;BME280;32907;41.412;2.164;2023-04-23T05:44:03;100252.84;;;21.44;50.71
47154;BME280;32907;41.412;2.164;2023-04-23T05:46:31;100246.38;;;21.40;51.05
47154;BME280;32907;41.412;2.164;2023-04-23T05:48:59;100217.81;;;21.24;50.82
47154;BME280;32907;41.412;2.164;2023-04-23T05:51:27;100271.91;;;21.58;50.65
47154;BME280;32907;41.412;2.164;2023-04-23T05:53:55;100270.00;;;21.59;50.66
47154;BME280;32907;41.412;2.164;2023-04-23T05:56:22;100238.50;;;21.39;50.92
47154;BME280;32907;41.412;2.164;2023-04-23T05:58:50;100260.31;;;21.53;50.55
47154;BME280;32907;41.412;2.164;2023-04-23T06:01:18;100216.69;;;21.25;50.64
47154;BME280;32907;41.412;2.164;2023-04-23T06:03:46;100270.28;;;21.57;50.55
47154;BME280;32907;41.412;2.164;2023-04-23T06:06:14;100250.44;;;21.43;50.37
47154;BME280;32907;41.412;2.164;2023-04-23T06:08:43;100238.66;;;21.34;50.70
47154;BME280;32907;41.412;2.164;2023-04-23T06:11:11;100273.00;;;21.57;50.59
47154;BME280;32907;41.412;2.164;2023-04-23T06:13:39;100233.06;;;21.25;50.41
47154;BME280;32907;41.412;2.164;2023-04-23T06:16:10;100225.59;;;21.17;50.22
47154;BME280;32907;41.412;2.164;2023-04-23T06:18:38;100276.78;;;21.47;50.77
47154;BME280;32907;41.412;2.164;2023-04-23T06:21:07;100253.56;;;21.36;50.65
47154;BME280;32907;41.412;2.164;2023-04-23T06:23:35;100233.38;;;21.23;50.44
47154;BME280;32907;41.412;2.164;2023-04-23T06:26:03;100264.34;;;21.41;50.80
47154;BME280;32907;41.412;2.164;2023-04-23T06:28:31;100250.22;;;21.39;50.52
47154;BME280;32907;41.412;2.164;2023-04-23T06:31:17;100237.69;;;21.24;50.15
47154;BME280;32907;41.412;2.164;2023-04-23T06:33:46;100236.41;;;21.22;50.35
47154;BME280;32907;41.412;2.164;2023-04-23T06:36:14;100251.75;;;21.32;50.49
47154;BME280;32907;41.412;2.164;2023-04-23T06:38:43;100251.16;;;21.35;50.49
47154;BME280;32907;41.412;2.164;2023-04-23T06:41:12;100278.47;;;21.57;50.49
47154;BME280;32907;41.412;2.164;2023-04-23T06:43:41;100199.84;;;21.09;50.73
47154;BME280;32907;41.412;2.164;2023-04-23T06:46:30;100249.63;;;21.42;50.72
47154;BME280;32907;41.412;2.164;2023-04-23T06:48:58;100060.81;;;20.23;50.50
47154;BME280;32907;41.412;2.164;2023-04-23T06:51:26;100230.47;;;21.34;50.67
47154;BME280;32907;41.412;2.164;2023-04-23T06:53:54;100175.38;;;20.95;50.34
47154;BME280;32907;41.412;2.164;2023-04-23T06:56:23;100285.31;;;21.68;50.74
47154;BME280;32907;41.412;2.164;2023-04-23T06:58:51;100156.00;;;20.83;50.95
47154;BME280;32907;41.412;2.164;2023-04-23T07:01:21;100045.28;;;20.24;50.92
47154;BME280;32907;41.412;2.164;2023-04-23T07:03:49;100119.41;;;20.62;50.81
47154;BME280;32907;41.412;2.164;2023-04-23T07:06:21;100189.66;;;21.15;50.56
47154;BME280;32907;41.412;2.164;2023-04-23T07:08:49;100309.47;;;21.75;50.99
47154;BME280;32907;41.412;2.164;2023-04-23T07:11:17;100248.97;;;21.59;50.76
47154;BME280;32907;41.412;2.164;2023-04-23T07:13:45;100105.81;;;20.62;50.66
47154;BME280;32907;41.412;2.164;2023-04-23T07:16:12;100133.81;;;20.76;50.37
47154;BME280;32907;41.412;2.164;2023-04-23T07:18:41;100153.56;;;20.95;50.29
47154;BME280;32907;41.412;2.164;2023-04-23T07:21:09;100158.22;;;20.95;50.30
47154;BME280;32907;41.412;2.164;2023-04-23T07:23:38;100123.13;;;20.66;50.00
47154;BME280;32907;41.412;2.164;2023-04-23T07:26:05;100186.63;;;21.16;50.15
47154;BME280;32907;41.412;2.164;2023-04-23T07:28:33;100067.56;;;20.39;49.89
47154;BME280;32907;41.412;2.164;2023-04-23T07:31:01;100198.22;;;21.22;50.23
47154;BME280;32907;41.412;2.164;2023-04-23T07:33:29;100198.22;;;21.22;50.17
47154;BME280;32907;41.412;2.164;2023-04-23T07:35:58;100147.38;;;21.04;49.91
47154;BME280;32907;41.412;2.164;2023-04-23T07:38:32;100011.63;;;20.06;49.47
47154;BME280;32907;41.412;2.164;2023-04-23T07:41:06;99996.59;;;19.95;49.34
47154;BME280;32907;41.412;2.164;2023-04-23T07:43:50;100133.09;;;20.84;49.24
47154;BME280;32907;41.412;2.164;2023-04-23T07:46:17;100196.50;;;21.26;49.62
47154;BME280;32907;41.412;2.164;2023-04-23T07:48:49;100257.97;;;21.60;49.57
47154;BME280;32907;41.412;2.164;2023-04-23T07:51:27;100064.94;;;20.48;49.74
47154;BME280;32907;41.412;2.164;2023-04-23T07:53:55;100185.72;;;21.21;49.95
47154;BME280;32907;41.412;2.164;2023-04-23T07:56:23;100275.97;;;21.83;49.60
47154;BME280;32907;41.412;2.164;2023-04-23T07:58:52;100089.44;;;20.62;49.87
47154;BME280;32907;41.412;2.164;2023-04-23T08:01:30;100057.91;;;20.47;50.31
47154;BME280;32907;41.412;2.164;2023-04-23T08:03:59;100279.09;;;21.90;50.20
47154;BME280;32907;41.412;2.164;2023-04-23T08:06:28;100018.84;;;20.38;50.51
47154;BME280;32907;41.412;2.164;2023-04-23T08:08:57;100260.56;;;21.87;50.65
47154;BME280;32907;41.412;2.164;2023-04-23T08:11:26;100263.19;;;21.92;50.13
47154;BME280;32907;41.412;2.164;2023-04-23T08:13:56;100283.59;;;21.95;50.13
47154;BME280;32907;41.412;2.164;2023-04-23T08:16:24;100227.69;;;21.70;50.16
47154;BME280;32907;41.412;2.164;2023-04-23T08:18:52;100018.63;;;20.34;50.10
47154;BME280;32907;41.412;2.164;2023-04-23T08:21:31;100047.88;;;20.56;50.01
47154;BME280;32907;41.412;2.164;2023-04-23T08:23:59;100074.91;;;20.66;49.47
47154;BME280;32907;41.412;2.164;2023-04-23T08:26:29;100194.44;;;21.45;49.40
47154;BME280;32907;41.412;2.164;2023-04-23T08:28:58;100263.00;;;21.89;49.67
47154;BME280;32907;41.412;2.164;2023-04-23T08:31:27;100169.84;;;21.37;49.96
47154;BME280;32907;41.412;2.164;2023-04-23T08:33:55;100230.25;;;21.66;50.05
47154;BME280;32907;41.412;2.164;2023-04-23T08:36:23;100068.69;;;20.88;50.48
47154;BME280;32907;41.412;2.164;2023-04-23T08:38:51;100292.75;;;22.13;50.96
47154;BME280;32907;41.412;2.164;2023-04-23T08:41:22;100182.06;;;21.62;50.78
47154;BME280;32907;41.412;2.164;2023-04-23T08:43:59;100145.72;;;21.53;50.29
47154;BME280;32907;41.412;2.164;2023-04-23T08:46:30;100125.81;;;21.30;49.56
47154;BME280;32907;41.412;2.164;2023-04-23T08:49:01;100024.56;;;20.64;50.11
47154;BME280;32907;41.412;2.164;2023-04-23T08:51:34;100125.25;;;21.41;50.24
47154;BME280;32907;41.412;2.164;2023-04-23T08:56:39;100054.56;;;21.09;51.23
47154;BME280;32907;41.412;2.164;2023-04-23T08:59:08;100149.44;;;21.57;51.22
47154;BME280;32907;41.412;2.164;2023-04-23T09:01:40;99997.91;;;20.61;50.97
47154;BME280;32907;41.412;2.164;2023-04-23T09:04:12;100013.31;;;20.79;51.15
47154;BME280;32907;41.412;2.164;2023-04-23T09:06:53;99967.41;;;20.50;51.43
47154;BME280;32907;41.412;2.164;2023-04-23T09:09:29;100079.63;;;21.33;51.29
47154;BME280;32907;41.412;2.164;2023-04-23T09:12:00;100005.81;;;20.85;51.41
47154;BME280;32907;41.412;2.164;2023-04-23T09:14:31;100228.41;;;22.29;51.11
47154;BME280;32907;41.412;2.164;2023-04-23T09:17:12;100142.84;;;21.80;51.46
47154;BME280;32907;41.412;2.164;2023-04-23T09:19:41;100032.84;;;20.95;51.15
47154;BME280;32907;41.412;2.164;2023-04-23T09:22:41;100260.03;;;22.52;50.56
47154;BME280;32907;41.412;2.164;2023-04-23T09:25:31;99997.50;;;20.67;49.63
47154;BME280;32907;41.412;2.164;2023-04-23T09:28:07;100004.28;;;20.70;50.05
47154;BME280;32907;41.412;2.164;2023-04-23T09:30:47;99979.84;;;20.65;51.45
47154;BME280;32907;41.412;2.164;2023-04-23T09:33:27;99978.94;;;20.70;50.72
47154;BME280;32907;41.412;2.164;2023-04-23T09:36:09;100169.53;;;21.83;50.13
47154;BME280;32907;41.412;2.164;2023-04-23T09:38:40;100074.72;;;21.21;50.21
47154;BME280;32907;41.412;2.164;2023-04-23T09:41:25;100139.41;;;21.66;50.16
47154;BME280;32907;41.412;2.164;2023-04-23T09:43:54;100091.38;;;21.34;50.72
47154;BME280;32907;41.412;2.164;2023-04-23T09:46:35;100257.09;;;22.40;50.66
47154;BME280;32907;41.412;2.164;2023-04-23T09:49:07;100161.94;;;21.80;50.21
47154;BME280;32907;41.412;2.164;2023-04-23T09:51:36;100081.47;;;21.24;50.01
47154;BME280;32907;41.412;2.164;2023-04-23T09:56:50;100172.00;;;21.71;49.30
47154;BME280;32907;41.412;2.164;2023-04-23T09:59:26;100018.38;;;20.72;49.49
47154;BME280;32907;41.412;2.164;2023-04-23T10:02:26;99997.13;;;20.60;49.82
47154;BME280;32907;41.412;2.164;2023-04-23T10:04:54;100027.69;;;20.71;49.74
47154;BME280;32907;41.412;2.164;2023-04-23T10:07:47;100038.75;;;20.75;49.42
47154;BME280;32907;41.412;2.164;2023-04-23T10:10:19;100054.22;;;21.02;49.12
47154;BME280;32907;41.412;2.164;2023-04-23T10:12:47;100239.63;;;22.19;49.23
47154;BME280;32907;41.412;2.164;2023-04-23T10:15:24;100269.84;;;22.22;48.85
47154;BME280;32907;41.412;2.164;2023-04-23T10:17:54;100039.75;;;20.79;49.18
47154;BME280;32907;41.412;2.164;2023-04-23T10:20:22;100176.84;;;21.74;49.35
47154;BME280;32907;41.412;2.164;2023-04-23T10:22:52;100231.41;;;21.96;49.31
47154;BME280;32907;41.412;2.164;2023-04-23T10:25:22;100119.94;;;21.36;49.17
47154;BME280;32907;41.412;2.164;2023-04-23T10:27:51;100095.09;;;21.24;49.43
47154;BME280;32907;41.412;2.164;2023-04-23T10:30:21;100160.53;;;21.60;49.10
47154;BME280;32907;41.412;2.164;2023-04-23T10:32:50;100132.84;;;21.44;49.56
47154;BME280;32907;41.412;2.164;2023-04-23T10:35:18;100153.09;;;21.52;49.52
47154;BME280;32907;41.412;2.164;2023-04-23T10:37:47;100165.94;;;21.74;51.47
47154;BME280;32907;41.412;2.164;2023-04-23T10:40:34;100261.59;;;22.45;51.75
47154;BME280;32907;41.412;2.164;2023-04-23T10:43:09;99980.25;;;20.72;51.04
47154;BME280;32907;41.412;2.164;2023-04-23T10:45:37;100000.56;;;20.88;50.47
47154;BME280;32907;41.412;2.164;2023-04-23T10:49:09;100272.44;;;22.58;49.76
47154;BME280;32907;41.412;2.164;2023-04-23T10:52:01;100257.19;;;22.57;49.49
47154;BME280;32907;41.412;2.164;2023-04-23T10:54:55;100010.09;;;21.00;49.75
47154;BME280;32907;41.412;2.164;2023-04-23T10:57:23;100189.28;;;22.11;50.09
47154;BME280;32907;41.412;2.164;2023-04-23T10:59:53;100027.50;;;21.12;49.74
47154;BME280;32907;41.412;2.164;2023-04-23T11:02:43;100052.06;;;21.35;49.88
47154;BME280;32907;41.412;2.164;2023-04-23T11:05:34;100117.00;;;21.77;50.02
47154;BME280;32907;41.412;2.164;2023-04-23T11:08:06;100023.97;;;21.12;49.52
47154;BME280;32907;41.412;2.164;2023-04-23T11:10:57;100081.59;;;21.64;49.89
47154;BME280;32907;41.412;2.164;2023-04-23T11:13:26;100095.22;;;21.64;50.18
47154;BME280;32907;41.412;2.164;2023-04-23T11:16:16;100247.91;;;22.76;50.14
47154;BME280;32907;41.412;2.164;2023-04-23T11:19:08;100001.22;;;21.16;50.32
47154;BME280;32907;41.412;2.164;2023-04-23T11:22:01;100233.13;;;22.77;50.06
47154;BME280;32907;41.412;2.164;2023-04-23T11:24:39;100235.56;;;22.78;49.92
47154;BME280;32907;41.412;2.164;2023-04-23T11:27:15;99993.78;;;21.31;49.66
47154;BME280;32907;41.412;2.164;2023-04-23T11:29:45;100065.63;;;21.79;50.05
47154;BME280;32907;41.412;2.164;2023-04-23T11:32:15;99993.69;;;21.36;49.78
47154;BME280;32907;41.412;2.164;2023-04-23T11:34:51;99953.09;;;21.12;49.46
47154;BME280;32907;41.412;2.164;2023-04-23T11:37:20;100147.50;;;22.42;49.61
47154;BME280;32907;41.412;2.164;2023-04-23T11:39:48;100225.81;;;22.86;49.69
47154;BME280;32907;41.412;2.164;2023-04-23T11:42:23;100009.31;;;21.53;49.74
47154;BME280;32907;41.412;2.164;2023-04-23T11:44:51;100054.72;;;21.88;49.97
47154;BME280;32907;41.412;2.164;2023-04-23T11:47:19;100082.38;;;21.95;50.09
47154;BME280;32907;41.412;2.164;2023-04-23T11:49:50;99993.75;;;21.53;50.06
47154;BME280;32907;41.412;2.164;2023-04-23T11:52:18;100212.63;;;22.88;50.10
47154;BME280;32907;41.412;2.164;2023-04-23T11:54:46;100065.13;;;22.09;50.57
47154;BME280;32907;41.412;2.164;2023-04-23T11:57:13;100150.94;;;22.56;50.58
47154;BME280;32907;41.412;2.164;2023-04-23T11:59:43;100188.50;;;22.90;50.44
47154;BME280;32907;41.412;2.164;2023-04-23T12:02:12;100115.53;;;22.51;50.39
47154;BME280;32907;41.412;2.164;2023-04-23T12:04:42;100083.19;;;22.27;51.08
47154;BME280;32907;41.412;2.164;2023-04-23T12:07:10;100162.81;;;22.60;50.90
47154;BME280;32907;41.412;2.164;2023-04-23T12:09:57;100183.44;;;22.75;50.88
47154;BME280;32907;41.412;2.164;2023-04-23T12:12:34;100174.59;;;22.78;51.07
47154;BME280;32907;41.412;2.164;2023-04-23T12:15:05;100169.13;;;22.78;52.04
47154;BME280;32907;41.412;2.164;2023-04-23T12:17:34;100175.59;;;22.82;52.85
47154;BME280;32907;41.412;2.164;2023-04-23T12:20:03;100136.16;;;22.66;52.48
47154;BME280;32907;41.412;2.164;2023-04-23T12:22:33;100121.66;;;22.56;51.73
47154;BME280;32907;41.412;2.164;2023-04-23T12:25:04;100174.69;;;22.95;51.40
47154;BME280;32907;41.412;2.164;2023-04-23T12:27:40;100099.78;;;22.48;51.38
47154;BME280;32907;41.412;2.164;2023-04-23T12:30:09;100150.22;;;22.90;51.47
47154;BME280;32907;41.412;2.164;2023-04-23T12:32:39;100141.16;;;22.81;50.70
47154;BME280;32907;41.412;2.164;2023-04-23T12:35:08;100138.75;;;22.79;50.32
47154;BME280;32907;41.412;2.164;2023-04-23T12:37:37;100120.56;;;22.66;50.72
47154;BME280;32907;41.412;2.164;2023-04-23T12:40:06;100153.84;;;22.77;50.87
47154;BME280;32907;41.412;2.164;2023-04-23T12:42:34;100142.91;;;22.68;50.80
47154;BME280;32907;41.412;2.164;2023-04-23T12:45:07;100116.03;;;22.61;51.21
47154;BME280;32907;41.412;2.164;2023-04-23T12:47:36;100132.50;;;22.79;50.77
47154;BME280;32907;41.412;2.164;2023-04-23T12:50:04;100131.22;;;22.85;50.99
47154;BME280;32907;41.412;2.164;2023-04-23T12:52:33;100117.69;;;22.80;51.01
47154;BME280;32907;41.412;2.164;2023-04-23T12:55:01;100082.75;;;22.59;50.84
47154;BME280;32907;41.412;2.164;2023-04-23T12:57:31;100090.19;;;22.76;50.67
47154;BME280;32907;41.412;2.164;2023-04-23T12:59:59;100091.97;;;22.81;50.25
47154;BME280;32907;41.412;2.164;2023-04-23T13:02:27;100058.50;;;22.67;50.20
47154;BME280;32907;41.412;2.164;2023-04-23T13:04:55;100086.19;;;22.82;49.93
47154;BME280;32907;41.412;2.164;2023-04-23T13:07:27;100053.50;;;22.60;49.99
47154;BME280;32907;41.412;2.164;2023-04-23T13:09:55;100104.22;;;22.92;49.45
47154;BME280;32907;41.412;2.164;2023-04-23T13:12:24;100085.69;;;22.80;49.89
47154;BME280;32907;41.412;2.164;2023-04-23T13:14:52;100061.72;;;22.69;49.56